createdAt,value
2023-02-25T00:00:41.011Z,35.60
2023-02-25T00:01:48.719Z,35.71
2023-02-25T00:02:49.048Z,33.07
2023-02-25T00:03:52.708Z,40.12
2023-02-25T00:04:54.622Z,34.63
2023-02-25T00:05:56.507Z,29.76
2023-02-25T00:06:58.788Z,40.84
2023-02-25T00:08:01.979Z,33.31
2023-02-25T00:09:04.059Z,34.78
2023-02-25T00:10:09.012Z,35.97
2023-02-25T00:11:12.762Z,38.15
2023-02-25T00:12:16.251Z,39.23
2023-02-25T00:13:18.738Z,34.33
2023-02-25T00:14:21.333Z,36.80
2023-02-25T00:15:23.308Z,38.40
2023-02-25T00:16:26.088Z,36.15
2023-02-25T00:17:28.468Z,41.77
2023-02-25T00:18:30.858Z,39.41
2023-02-25T00:19:32.766Z,33.87
2023-02-25T00:20:36.661Z,36.68
2023-02-25T00:21:38.565Z,34.87
2023-02-25T00:22:40.445Z,35.63
2023-02-25T00:23:44.963Z,38.27
2023-02-25T00:24:46.972Z,32.79
2023-02-25T00:25:49.302Z,33.29
2023-02-25T00:26:51.309Z,38.03
2023-02-25T00:27:53.282Z,32.78
2023-02-25T00:28:55.408Z,35.49
2023-02-25T00:29:57.392Z,36.78
2023-02-25T00:31:00.997Z,35.75
2023-02-25T00:32:03.316Z,37.99
2023-02-25T00:33:07.901Z,36.77
2023-02-25T00:34:09.813Z,36.19
2023-02-25T00:35:12.012Z,36.27
2023-02-25T00:36:17.935Z,34.61
2023-02-25T00:37:19.877Z,39.29
2023-02-25T00:38:21.922Z,39.19
2023-02-25T00:39:25.011Z,37.14
2023-02-25T00:40:29.289Z,35.26
2023-02-25T00:41:31.296Z,41.48
2023-02-25T00:42:34.101Z,32.79
2023-02-25T00:43:37.054Z,36.16
2023-02-25T00:44:39.216Z,35.81
2023-02-25T00:45:41.096Z,44.56
2023-02-25T00:46:43.137Z,42.24
2023-02-25T00:47:45.156Z,38.97
2023-02-25T00:48:48.366Z,42.31
2023-02-25T00:49:50.282Z,39.79
2023-02-25T00:50:52.294Z,55.29
2023-02-25T00:51:54.258Z,38.17
2023-02-25T00:52:56.147Z,37.67
2023-02-25T00:53:59.399Z,42.03
2023-02-25T00:55:03.020Z,37.53
2023-02-25T00:56:07.933Z,35.95
2023-02-25T00:57:10.042Z,36.44
2023-02-25T00:58:13.221Z,39.96
2023-02-25T00:59:15.518Z,36.90
2023-02-25T01:00:19.150Z,34.72
2023-02-25T01:01:25.445Z,39.84
2023-02-25T01:02:28.677Z,36.22
2023-02-25T01:03:31.246Z,39.33
2023-02-25T01:04:34.832Z,36.21
2023-02-25T01:05:42.518Z,40.55
2023-02-25T01:06:45.288Z,36.81
2023-02-25T01:07:49.599Z,38.17
2023-02-25T01:08:52.804Z,38.50
2023-02-25T01:09:57.593Z,41.64
2023-02-25T01:11:00.491Z,37.69
2023-02-25T01:12:03.496Z,45.09
2023-02-25T01:13:05.404Z,43.23
2023-02-25T01:14:13.903Z,41.53
2023-02-25T01:15:15.982Z,42.48
2023-02-25T01:16:21.648Z,40.91
2023-02-25T01:17:24.033Z,45.86
2023-02-25T01:18:26.097Z,47.35
2023-02-25T01:19:29.021Z,41.41
2023-02-25T01:20:31.821Z,40.25
2023-02-25T01:21:39.370Z,44.07
2023-02-25T01:22:41.420Z,42.43
2023-02-25T01:23:48.072Z,41.43
2023-02-25T01:24:50.106Z,39.07
2023-02-25T01:25:52.145Z,37.03
2023-02-25T01:26:57.634Z,42.93
2023-02-25T01:27:59.790Z,45.34
2023-02-25T01:29:08.176Z,40.59
2023-02-25T01:30:11.581Z,45.78
2023-02-25T01:31:18.537Z,35.49
2023-02-25T01:32:20.826Z,42.48
2023-02-25T01:33:23.314Z,42.34
2023-02-25T01:34:26.454Z,38.31
2023-02-25T01:35:28.356Z,41.86
2023-02-25T01:36:32.360Z,40.15
2023-02-25T01:37:34.284Z,39.47
2023-02-25T01:38:36.174Z,36.78
2023-02-25T01:39:39.464Z,40.19
2023-02-25T01:40:41.695Z,39.43
2023-02-25T01:41:45.166Z,40.41
2023-02-25T01:42:47.087Z,39.70
2023-02-25T01:44:09.870Z,38.28
2023-02-25T01:45:21.849Z,40.16
2023-02-25T01:46:24.429Z,40.31
2023-02-25T01:47:30.828Z,42.26
2023-02-25T01:48:36.196Z,39.02
2023-02-25T01:49:42.016Z,43.03
2023-02-25T01:50:50.960Z,41.01
2023-02-25T01:51:57.379Z,39.38
2023-02-25T01:53:01.922Z,39.28
2023-02-25T01:54:07.226Z,42.28
2023-02-25T01:55:10.504Z,37.23
2023-02-25T01:56:16.584Z,43.16
2023-02-25T01:57:20.468Z,41.33
2023-02-25T01:58:22.933Z,39.67
2023-02-25T01:59:28.183Z,46.00
2023-02-25T02:00:32.390Z,41.96
2023-02-25T02:01:37.745Z,41.56
2023-02-25T02:02:43.253Z,43.19
2023-02-25T02:03:46.731Z,42.75
2023-02-25T02:04:52.757Z,41.33
2023-02-25T02:06:19.272Z,38.08
2023-02-25T02:07:22.928Z,36.46
2023-02-25T02:08:25.845Z,41.61
2023-02-25T02:09:28.744Z,40.76
2023-02-25T02:10:30.855Z,39.88
2023-02-25T02:11:33.723Z,36.05
2023-02-25T02:12:39.892Z,43.34
2023-02-25T02:13:45.372Z,39.34
2023-02-25T02:14:48.567Z,44.53
2023-02-25T02:16:00.343Z,42.06
2023-02-25T02:17:18.001Z,44.20
2023-02-25T02:18:20.923Z,39.17
2023-02-25T02:19:38.862Z,40.29
2023-02-25T02:20:47.542Z,44.87
2023-02-25T02:21:56.317Z,39.30
2023-02-25T02:23:29.757Z,40.19
2023-02-25T02:27:44.306Z,38.84
2023-02-25T02:29:20.336Z,45.91
2023-02-25T02:30:32.082Z,43.86
2023-02-25T02:31:49.974Z,40.90
2023-02-25T02:32:58.935Z,39.53
2023-02-25T02:34:22.640Z,46.50
2023-02-25T02:35:37.729Z,40.48
2023-02-25T02:36:46.115Z,42.23
2023-02-25T02:38:01.129Z,40.92
2023-02-25T02:39:09.838Z,43.03
2023-02-25T02:40:15.880Z,43.25
2023-02-25T02:41:24.755Z,36.97
2023-02-25T02:42:45.505Z,44.43
2023-02-25T02:44:06.197Z,38.41
2023-02-25T02:45:14.886Z,43.57
2023-02-25T02:46:21.315Z,49.02
2023-02-25T02:47:30.124Z,49.10
2023-02-25T02:48:36.264Z,43.38
2023-02-25T02:49:48.006Z,50.39
2023-02-25T02:50:54.028Z,46.83
2023-02-25T02:52:02.568Z,42.01
2023-02-25T02:53:23.019Z,46.64
2023-02-25T02:54:28.807Z,57.24
2023-02-25T02:55:40.520Z,49.28
2023-02-25T02:56:46.076Z,48.56
2023-02-25T02:57:51.138Z,42.92
2023-02-25T03:00:13.237Z,44.04
2023-02-25T03:01:19.124Z,44.79
2023-02-25T03:02:24.948Z,40.77
2023-02-25T03:03:37.206Z,43.92
2023-02-25T03:04:43.139Z,42.79
2023-02-25T03:05:48.935Z,38.02
2023-02-25T03:06:54.851Z,46.48
2023-02-25T03:08:12.471Z,43.97
2023-02-25T03:09:21.220Z,40.29
2023-02-25T03:10:23.590Z,41.72
2023-02-25T03:11:25.955Z,39.74
2023-02-25T03:12:29.254Z,40.70
2023-02-25T03:13:31.427Z,44.38
2023-02-25T03:14:35.615Z,48.19
2023-02-25T03:15:40.036Z,39.51
2023-02-25T03:16:57.766Z,40.98
2023-02-25T03:18:09.126Z,45.35
2023-02-25T03:19:17.540Z,41.56
2023-02-25T03:20:26.201Z,46.79
2023-02-25T03:21:31.961Z,39.06
2023-02-25T03:22:37.650Z,51.26
2023-02-25T03:23:44.595Z,42.74
2023-02-25T03:25:07.345Z,40.51
2023-02-25T03:26:28.993Z,46.17
2023-02-25T03:27:34.698Z,41.87
2023-02-25T03:28:37.773Z,43.41
2023-02-25T03:29:39.890Z,42.72
2023-02-25T03:30:48.359Z,41.81
2023-02-25T03:31:55.357Z,44.77
2023-02-25T03:33:19.577Z,45.16
2023-02-25T03:34:25.420Z,45.05
2023-02-25T03:35:29.648Z,44.32
2023-02-25T03:36:44.454Z,42.46
2023-02-25T03:37:50.120Z,43.86
2023-02-25T03:38:56.376Z,42.68
2023-02-25T03:40:02.174Z,44.70
2023-02-25T03:41:07.859Z,42.47
2023-02-25T03:42:13.019Z,47.05
2023-02-25T03:43:18.939Z,45.34
2023-02-25T03:44:24.730Z,46.26
2023-02-25T03:45:27.177Z,47.30
2023-02-25T03:46:32.432Z,50.47
2023-02-25T03:47:36.819Z,43.70
2023-02-25T03:48:40.877Z,48.55
2023-02-25T03:49:49.413Z,53.27
2023-02-25T03:50:58.241Z,44.91
2023-02-25T03:52:03.373Z,45.38
2023-02-25T03:53:06.333Z,48.37
2023-02-25T03:54:08.475Z,48.81
2023-02-25T03:55:12.464Z,53.98
2023-02-25T03:56:15.645Z,50.01
2023-02-25T03:57:19.170Z,54.10
2023-02-25T03:58:21.592Z,46.62
2023-02-25T03:59:23.475Z,44.45
2023-02-25T04:02:45.467Z,50.69
2023-02-25T04:03:47.567Z,51.33
2023-02-25T04:04:49.840Z,44.57
2023-02-25T04:05:51.867Z,49.53
2023-02-25T04:06:53.893Z,49.79
2023-02-25T04:08:00.239Z,51.07
2023-02-25T04:09:02.383Z,53.34
2023-02-25T04:10:07.018Z,49.59
2023-02-25T04:11:08.989Z,51.59
2023-02-25T04:12:12.197Z,56.34
2023-02-25T04:13:15.876Z,49.00
2023-02-25T04:14:18.336Z,48.06
2023-02-25T04:15:20.462Z,49.85
2023-02-25T04:16:23.073Z,54.58
2023-02-25T04:17:25.985Z,50.02
2023-02-25T04:18:28.019Z,49.59
2023-02-25T04:19:32.527Z,48.41
2023-02-25T04:20:34.825Z,51.15
2023-02-25T04:21:37.528Z,46.45
2023-02-25T04:22:40.333Z,47.83
2023-02-25T04:23:42.228Z,45.91
2023-02-25T04:24:44.548Z,50.07
2023-02-25T04:25:46.743Z,58.66
2023-02-25T04:26:49.148Z,57.51
2023-02-25T04:27:51.182Z,52.36
2023-02-25T04:28:53.713Z,51.24
2023-02-25T04:29:55.700Z,47.69
2023-02-25T04:30:58.086Z,49.87
2023-02-25T04:32:00.661Z,52.74
2023-02-25T04:33:03.531Z,46.55
2023-02-25T04:34:05.523Z,49.26
2023-02-25T04:35:08.510Z,49.91
2023-02-25T04:36:29.570Z,46.36
2023-02-25T04:37:31.544Z,47.46
2023-02-25T04:38:35.573Z,50.10
2023-02-25T04:39:37.500Z,46.98
2023-02-25T04:40:40.141Z,49.89
2023-02-25T04:41:42.572Z,45.53
2023-02-25T04:42:44.955Z,56.18
2023-02-25T04:43:46.876Z,53.01
2023-02-25T04:44:49.004Z,52.19
2023-02-25T04:45:53.991Z,51.58
2023-02-25T04:46:57.071Z,46.94
2023-02-25T04:47:59.100Z,51.09
2023-02-25T04:49:01.647Z,47.65
2023-02-25T04:50:06.664Z,50.28
2023-02-25T04:51:08.737Z,49.86
2023-02-25T04:52:12.391Z,55.91
2023-02-25T04:53:14.303Z,52.05
2023-02-25T04:54:17.593Z,55.90
2023-02-25T04:55:20.128Z,60.76
2023-02-25T04:56:23.314Z,55.63
2023-02-25T04:57:25.997Z,63.49
2023-02-25T04:58:27.919Z,53.36
2023-02-25T04:59:29.805Z,45.40
2023-02-25T05:00:31.901Z,51.27
2023-02-25T05:01:33.970Z,54.98
2023-02-25T05:02:36.051Z,51.78
2023-02-25T05:03:40.115Z,49.31
2023-02-25T05:04:42.636Z,53.11
2023-02-25T05:05:44.807Z,47.33
2023-02-25T05:06:47.069Z,48.65
2023-02-25T05:07:48.950Z,51.79
2023-02-25T05:08:50.993Z,51.83
2023-02-25T05:09:52.877Z,52.36
2023-02-25T05:10:55.548Z,52.93
2023-02-25T05:11:57.674Z,50.38
2023-02-25T05:12:59.550Z,51.20
2023-02-25T05:14:01.949Z,54.69
2023-02-25T05:15:05.811Z,50.27
2023-02-25T05:16:11.393Z,48.04
2023-02-25T05:17:13.435Z,48.52
2023-02-25T05:18:16.182Z,52.43
2023-02-25T05:20:41.213Z,47.67
2023-02-25T05:21:44.586Z,45.97
2023-02-25T05:22:46.974Z,55.18
2023-02-25T05:23:51.202Z,44.49
2023-02-25T05:24:53.448Z,52.15
2023-02-25T05:25:55.522Z,48.05
2023-02-25T05:26:57.500Z,44.96
2023-02-25T05:27:59.608Z,51.72
2023-02-25T05:29:04.307Z,51.24
2023-02-25T05:30:08.209Z,49.09
2023-02-25T05:31:13.113Z,48.98
2023-02-25T05:32:15.708Z,54.32
2023-02-25T05:33:18.485Z,56.59
2023-02-25T05:34:20.730Z,50.79
2023-02-25T05:35:22.937Z,54.75
2023-02-25T05:36:27.952Z,54.50
2023-02-25T05:37:31.963Z,52.32
2023-02-25T05:38:35.589Z,57.83
2023-02-25T05:39:38.023Z,54.77
2023-02-25T05:40:40.201Z,54.80
2023-02-25T05:41:42.889Z,50.80
2023-02-25T05:42:45.244Z,47.51
2023-02-25T05:43:47.126Z,52.87
2023-02-25T05:44:49.334Z,53.24
2023-02-25T05:45:55.703Z,55.65
2023-02-25T05:46:58.145Z,56.96
2023-02-25T05:48:01.364Z,52.49
2023-02-25T05:49:03.268Z,57.79
2023-02-25T05:50:06.408Z,56.42
2023-02-25T05:51:11.832Z,56.21
2023-02-25T05:52:14.209Z,54.24
2023-02-25T05:53:17.420Z,54.75
2023-02-25T05:54:19.338Z,58.33
2023-02-25T05:55:21.246Z,57.11
2023-02-25T05:56:25.508Z,54.82
2023-02-25T05:57:29.293Z,57.82
2023-02-25T05:58:31.445Z,62.14
2023-02-25T05:59:33.576Z,59.17
2023-02-25T06:00:36.975Z,52.29
2023-02-25T06:01:38.943Z,58.19
2023-02-25T06:02:41.735Z,58.29
2023-02-25T06:03:45.864Z,51.45
2023-02-25T06:04:47.803Z,59.05
2023-02-25T06:05:49.686Z,58.76
2023-02-25T06:06:51.692Z,55.30
2023-02-25T06:07:53.551Z,54.36
2023-02-25T06:08:55.971Z,55.37
2023-02-25T06:09:59.465Z,54.69
2023-02-25T06:11:03.584Z,55.40
2023-02-25T06:12:06.528Z,56.31
2023-02-25T06:13:12.183Z,58.16
2023-02-25T06:14:15.479Z,53.16
2023-02-25T06:15:18.036Z,61.76
2023-02-25T06:16:21.638Z,54.22
2023-02-25T06:17:24.279Z,52.87
2023-02-25T06:18:26.354Z,65.27
2023-02-25T06:19:28.260Z,53.91
2023-02-25T06:20:30.666Z,58.79
2023-02-25T06:21:35.196Z,59.00
2023-02-25T06:22:37.218Z,52.28
2023-02-25T06:23:41.632Z,50.47
2023-02-25T06:24:44.057Z,53.78
2023-02-25T06:25:45.949Z,55.38
2023-02-25T06:26:48.769Z,57.19
2023-02-25T06:27:50.680Z,52.02
2023-02-25T06:28:53.890Z,59.01
2023-02-25T06:29:55.811Z,55.03
2023-02-25T06:30:58.154Z,54.53
2023-02-25T06:32:00.403Z,53.83
2023-02-25T06:33:03.798Z,53.26
2023-02-25T06:34:06.780Z,54.74
2023-02-25T06:35:09.309Z,52.94
2023-02-25T06:36:13.119Z,56.13
2023-02-25T06:37:16.319Z,55.08
2023-02-25T06:38:19.136Z,51.41
2023-02-25T06:39:21.057Z,52.63
2023-02-25T06:40:23.267Z,55.37
2023-02-25T06:41:25.997Z,54.56
2023-02-25T06:42:28.021Z,63.10
2023-02-25T06:43:30.130Z,54.91
2023-02-25T06:44:32.032Z,55.19
2023-02-25T06:45:36.128Z,52.59
2023-02-25T06:46:38.255Z,50.95
2023-02-25T06:47:40.254Z,52.68
2023-02-25T06:48:42.130Z,53.21
2023-02-25T06:49:44.037Z,55.97
2023-02-25T06:50:46.023Z,54.23
2023-02-25T06:51:48.502Z,49.31
2023-02-25T06:52:50.512Z,46.93
2023-02-25T06:53:52.405Z,51.37
2023-02-25T06:54:54.417Z,47.90
2023-02-25T06:55:58.288Z,47.26
2023-02-25T06:57:01.535Z,48.18
2023-02-25T06:58:03.436Z,48.76
2023-02-25T06:59:05.451Z,47.17
2023-02-25T07:00:09.862Z,47.78
2023-02-25T07:01:15.800Z,48.54
2023-02-25T07:02:18.483Z,48.69
2023-02-25T07:03:20.376Z,51.84
2023-02-25T07:04:22.298Z,52.65
2023-02-25T07:05:24.296Z,52.34
2023-02-25T07:06:26.683Z,59.38
2023-02-25T07:07:28.675Z,49.25
2023-02-25T07:08:31.025Z,51.81
2023-02-25T07:09:33.308Z,50.41
2023-02-25T07:10:35.413Z,54.67
2023-02-25T07:11:38.291Z,47.39
2023-02-25T07:12:40.194Z,50.84
2023-02-25T07:13:43.041Z,51.89
2023-02-25T07:14:46.446Z,53.17
2023-02-25T07:15:48.447Z,53.82
2023-02-25T07:16:51.228Z,49.63
2023-02-25T07:17:55.531Z,50.35
2023-02-25T07:18:59.151Z,49.27
2023-02-25T07:20:01.168Z,48.27
2023-02-25T07:21:03.996Z,48.95
2023-02-25T07:22:08.256Z,47.61
2023-02-25T07:23:10.249Z,50.39
2023-02-25T07:24:12.895Z,45.39
2023-02-25T07:25:15.691Z,55.83
2023-02-25T07:26:17.876Z,47.76
2023-02-25T07:27:19.974Z,50.13
2023-02-25T07:28:22.224Z,43.88
2023-02-25T07:29:24.806Z,52.27
2023-02-25T07:30:27.084Z,51.88
2023-02-25T07:31:29.393Z,55.90
2023-02-25T07:32:31.803Z,49.63
2023-02-25T07:33:34.272Z,45.40
2023-02-25T07:34:37.248Z,46.84
2023-02-25T07:35:39.209Z,42.27
2023-02-25T07:36:41.393Z,52.93
2023-02-25T07:37:43.279Z,49.14
2023-02-25T07:38:46.242Z,50.75
2023-02-25T07:39:48.253Z,51.80
2023-02-25T07:40:51.651Z,55.74
2023-02-25T07:41:54.986Z,55.92
2023-02-25T07:42:56.884Z,52.90
2023-02-25T07:43:58.874Z,52.05
2023-02-25T07:45:02.245Z,50.93
2023-02-25T07:46:05.127Z,58.02
2023-02-25T07:47:07.365Z,55.18
2023-02-25T07:48:09.538Z,50.27
2023-02-25T07:49:11.824Z,49.65
2023-02-25T07:50:14.106Z,50.39
2023-02-25T07:51:19.188Z,45.60
2023-02-25T07:52:21.264Z,48.92
2023-02-25T07:53:23.226Z,44.91
2023-02-25T07:54:25.158Z,46.69
2023-02-25T07:55:27.363Z,43.22
2023-02-25T07:56:31.227Z,48.13
2023-02-25T07:57:33.345Z,47.68
2023-02-25T07:58:35.967Z,44.77
2023-02-25T07:59:38.318Z,50.77
2023-02-25T08:00:41.006Z,53.31
2023-02-25T08:01:43.320Z,44.67
2023-02-25T08:02:45.360Z,49.72
2023-02-25T08:03:48.097Z,49.07
2023-02-25T08:04:51.574Z,45.41
2023-02-25T08:05:53.850Z,47.27
2023-02-25T08:06:56.041Z,45.25
2023-02-25T08:08:00.899Z,47.85
2023-02-25T08:10:17.355Z,44.70
2023-02-25T08:11:21.763Z,46.89
2023-02-25T08:12:23.854Z,52.13
2023-02-25T08:13:25.996Z,45.91
2023-02-25T08:14:28.052Z,41.73
2023-02-25T08:15:29.914Z,48.16
2023-02-25T08:16:33.016Z,44.51
2023-02-25T08:17:34.953Z,45.94
2023-02-25T08:18:37.533Z,41.39
2023-02-25T08:19:40.252Z,44.44
2023-02-25T08:20:47.048Z,47.09
2023-02-25T08:21:49.493Z,43.34
2023-02-25T08:22:51.387Z,49.00
2023-02-25T08:23:53.891Z,43.03
2023-02-25T08:24:55.777Z,43.89
2023-02-25T08:25:58.775Z,45.83
2023-02-25T08:27:00.809Z,44.98
2023-02-25T08:28:04.119Z,42.93
2023-02-25T08:29:07.189Z,47.66
2023-02-25T08:30:11.497Z,46.73
2023-02-25T08:31:14.771Z,46.24
2023-02-25T08:32:17.563Z,47.74
2023-02-25T08:33:20.884Z,45.03
2023-02-25T08:34:23.052Z,45.68
2023-02-25T08:35:25.566Z,44.37
2023-02-25T08:36:30.075Z,47.54
2023-02-25T08:37:32.000Z,51.16
2023-02-25T08:38:34.498Z,45.69
2023-02-25T08:39:37.642Z,49.41
2023-02-25T08:40:40.892Z,48.32
2023-02-25T08:41:43.461Z,75.99
2023-02-25T08:42:45.903Z,48.37
2023-02-25T08:43:53.296Z,51.44
2023-02-25T08:44:55.403Z,45.17
2023-02-25T08:45:57.289Z,40.83
2023-02-25T08:46:59.639Z,46.59
2023-02-25T08:48:01.679Z,45.57
2023-02-25T08:49:04.469Z,46.19
2023-02-25T08:50:08.261Z,45.12
2023-02-25T08:51:10.702Z,46.90
2023-02-25T08:52:13.392Z,46.42
2023-02-25T08:53:15.599Z,44.91
2023-02-25T08:54:17.690Z,50.13
2023-02-25T08:55:19.963Z,49.56
2023-02-25T08:56:22.048Z,48.16
2023-02-25T08:57:24.205Z,44.51
2023-02-25T08:58:26.332Z,48.63
2023-02-25T08:59:28.477Z,43.05
2023-02-25T09:00:30.968Z,43.29
2023-02-25T09:01:32.941Z,40.02
2023-02-25T09:02:35.536Z,43.03
2023-02-25T09:03:39.032Z,45.45
2023-02-25T09:04:41.117Z,47.49
2023-02-25T09:05:43.121Z,42.14
2023-02-25T09:06:46.970Z,42.40
2023-02-25T09:07:49.510Z,45.02
2023-02-25T09:08:53.156Z,43.74
2023-02-25T09:09:59.048Z,46.14
2023-02-25T09:11:04.845Z,40.60
2023-02-25T09:12:07.433Z,44.12
2023-02-25T09:13:09.337Z,45.67
2023-02-25T09:14:11.519Z,41.73
2023-02-25T09:15:14.706Z,40.26
2023-02-25T09:16:17.034Z,46.09
2023-02-25T09:17:19.261Z,39.55
2023-02-25T09:18:21.259Z,48.29
2023-02-25T09:19:23.201Z,54.25
2023-02-25T09:20:25.304Z,47.93
2023-02-25T09:21:27.450Z,40.39
2023-02-25T09:22:29.451Z,39.15
2023-02-25T09:23:32.556Z,42.85
2023-02-25T09:24:35.569Z,40.39
2023-02-25T09:25:38.399Z,39.69
2023-02-25T09:26:40.743Z,39.58
2023-02-25T09:27:42.756Z,40.91
2023-02-25T09:28:45.097Z,40.69
2023-02-25T09:29:47.239Z,38.17
2023-02-25T09:30:50.446Z,38.62
2023-02-25T09:31:53.534Z,41.75
2023-02-25T09:32:56.052Z,38.17
2023-02-25T09:33:58.672Z,36.40
2023-02-25T09:35:01.518Z,41.14
2023-02-25T09:36:12.823Z,39.97
2023-02-25T09:37:16.442Z,39.76
2023-02-25T09:38:18.358Z,35.85
2023-02-25T09:39:20.249Z,37.65
2023-02-25T09:40:22.775Z,35.91
2023-02-25T09:41:28.744Z,34.21
2023-02-25T09:42:57.382Z,37.15
2023-02-25T09:44:13.070Z,32.13
2023-02-25T09:45:18.244Z,29.88
2023-02-25T09:46:20.581Z,31.30
2023-02-25T09:47:43.203Z,38.67
2023-02-25T09:48:51.837Z,32.08
2023-02-25T09:50:02.023Z,32.83
2023-02-25T09:51:16.765Z,37.36
2023-02-25T09:52:39.718Z,33.83
2023-02-25T09:53:48.123Z,35.03
2023-02-25T09:55:09.680Z,35.69
2023-02-25T09:56:15.891Z,32.11
2023-02-25T09:57:20.178Z,32.68
2023-02-25T09:58:41.361Z,29.82
2023-02-25T09:59:43.893Z,33.66
2023-02-25T10:01:08.268Z,33.65
2023-02-25T10:02:40.095Z,31.16
2023-02-25T10:05:21.596Z,30.48
2023-02-25T10:06:37.105Z,27.87
2023-02-25T10:08:04.131Z,31.29
2023-02-25T10:09:27.844Z,27.34
2023-02-25T10:11:01.677Z,27.63
2023-02-25T10:12:18.353Z,32.89
2023-02-25T10:13:43.961Z,31.44
2023-02-25T10:15:11.799Z,29.96
2023-02-25T10:16:20.987Z,29.59
2023-02-25T10:18:00.259Z,29.71
2023-02-25T10:19:18.408Z,28.09
2023-02-25T10:20:48.311Z,25.96
2023-02-25T10:22:05.819Z,26.14
2023-02-25T10:23:32.440Z,30.38
2023-02-25T10:24:43.959Z,25.73
2023-02-25T10:29:31.657Z,25.63
2023-02-25T10:30:55.796Z,25.69
2023-02-25T10:32:00.160Z,28.81
2023-02-25T10:33:09.291Z,26.99
2023-02-25T10:34:23.504Z,25.07
2023-02-25T10:35:28.365Z,25.01
2023-02-25T10:36:34.246Z,23.87
2023-02-25T10:37:37.060Z,25.93
2023-02-25T10:38:45.871Z,25.06
2023-02-25T10:39:50.664Z,22.92
2023-02-25T10:40:55.985Z,23.66
2023-02-25T10:41:58.261Z,21.67
2023-02-25T10:43:05.152Z,25.66
2023-02-25T10:44:10.965Z,20.82
2023-02-25T10:45:29.351Z,25.58
2023-02-25T10:46:44.217Z,22.63
2023-02-25T10:47:50.542Z,24.09
2023-02-25T10:49:16.393Z,21.36
2023-02-25T10:50:27.547Z,21.38
2023-02-25T10:51:27.319Z,26.42
2023-02-25T10:52:29.336Z,23.90
2023-02-25T10:53:33.237Z,19.42
2023-02-25T10:54:52.435Z,21.09
2023-02-25T10:55:54.627Z,23.92
2023-02-25T10:57:00.605Z,24.14
2023-02-25T10:58:04.056Z,22.97
2023-02-25T10:59:10.054Z,19.75
2023-02-25T11:00:31.346Z,21.26
2023-02-25T11:01:42.880Z,22.01
2023-02-25T11:02:46.981Z,20.08
2023-02-25T11:03:55.896Z,21.86
2023-02-25T11:04:58.141Z,18.95
2023-02-25T11:06:12.734Z,19.74
2023-02-25T11:07:36.581Z,21.07
2023-02-25T11:08:39.630Z,20.29
2023-02-25T11:09:44.626Z,22.42
2023-02-25T11:11:07.948Z,19.75
2023-02-25T11:12:13.515Z,18.67
2023-02-25T11:13:19.807Z,20.98
2023-02-25T11:14:34.577Z,23.89
2023-02-25T11:15:46.566Z,22.34
2023-02-25T11:16:44.224Z,19.16
2023-02-25T11:17:46.405Z,19.96
2023-02-25T11:18:54.894Z,21.53
2023-02-25T11:20:01.866Z,19.19
2023-02-25T11:22:23.886Z,21.05
2023-02-25T11:23:32.678Z,20.78
2023-02-25T11:24:37.862Z,21.43
2023-02-25T11:25:44.015Z,24.52
2023-02-25T11:26:49.452Z,19.09
2023-02-25T11:27:54.845Z,19.71
2023-02-25T11:29:00.527Z,21.64
2023-02-25T11:30:15.620Z,21.87
2023-02-25T11:31:21.582Z,19.94
2023-02-25T11:32:24.923Z,17.87
2023-02-25T11:33:30.792Z,21.01
2023-02-25T11:34:36.245Z,20.24
2023-02-25T11:35:39.886Z,23.14
2023-02-25T11:36:42.187Z,21.71
2023-02-25T11:37:45.855Z,20.31
2023-02-25T11:38:49.787Z,19.94
2023-02-25T11:39:54.474Z,25.46
2023-02-25T11:40:58.155Z,23.98
2023-02-25T11:42:20.469Z,22.23
2023-02-25T11:43:39.617Z,21.32
2023-02-25T11:44:44.454Z,21.03
2023-02-25T11:45:50.133Z,19.83
2023-02-25T11:47:02.624Z,22.29
2023-02-25T11:48:08.058Z,18.96
2023-02-25T11:49:13.731Z,20.95
2023-02-25T11:50:25.761Z,21.84
2023-02-25T11:51:34.261Z,23.67
2023-02-25T11:52:58.383Z,22.11
2023-02-25T11:54:19.506Z,21.14
2023-02-25T11:56:00.418Z,24.95
2023-02-25T11:57:18.099Z,19.11
2023-02-25T11:58:23.975Z,22.27
2023-02-25T11:59:35.804Z,22.19
2023-02-25T12:00:47.554Z,19.93
2023-02-25T12:01:59.450Z,20.14
2023-02-25T12:03:08.240Z,20.77
2023-02-25T12:04:29.466Z,19.28
2023-02-25T12:05:50.562Z,21.82
2023-02-25T12:08:15.679Z,18.09
2023-02-25T12:09:55.783Z,20.68
2023-02-25T12:11:27.392Z,21.84
2023-02-25T12:12:33.215Z,20.88
2023-02-25T12:13:45.520Z,19.77
2023-02-25T12:15:00.777Z,20.24
2023-02-25T12:17:37.977Z,21.94
2023-02-25T12:19:15.673Z,19.01
2023-02-25T12:20:41.647Z,20.73
2023-02-25T12:21:47.335Z,23.17
2023-02-25T12:22:58.825Z,24.31
2023-02-25T12:24:22.820Z,22.96
2023-02-25T12:25:57.446Z,23.27
2023-02-25T12:27:23.217Z,18.70
2023-02-25T12:28:55.132Z,20.21
2023-02-25T12:31:43.197Z,23.34
2023-02-25T12:33:14.415Z,18.17
2023-02-25T12:34:25.497Z,22.29
2023-02-25T12:35:39.780Z,18.25
2023-02-25T12:36:54.885Z,17.71
2023-02-25T12:38:34.048Z,21.47
2023-02-25T12:40:01.525Z,20.87
2023-02-25T12:41:15.970Z,22.33
2023-02-25T12:42:44.546Z,23.14
2023-02-25T12:44:05.614Z,23.39
2023-02-25T12:45:21.748Z,23.14
2023-02-25T12:46:44.370Z,19.82
2023-02-25T12:47:53.322Z,21.24
2023-02-25T12:49:27.924Z,21.89
2023-02-25T12:51:07.432Z,22.86
2023-02-25T12:52:17.530Z,21.69
2023-02-25T12:53:38.464Z,22.50
2023-02-25T12:54:56.593Z,20.73
2023-02-25T12:56:17.241Z,22.30
2023-02-25T12:57:39.794Z,21.42
2023-02-25T12:59:09.662Z,22.36
2023-02-25T13:00:43.169Z,21.83
2023-02-25T13:01:58.136Z,25.37
2023-02-25T13:03:23.733Z,24.42
2023-02-25T13:04:35.171Z,22.71
2023-02-25T13:06:56.532Z,22.42
2023-02-25T13:08:35.976Z,24.36
2023-02-25T13:10:04.731Z,25.24
2023-02-25T13:11:10.608Z,26.88
2023-02-25T13:12:33.510Z,25.77
2023-02-25T13:13:51.502Z,23.62
2023-02-25T13:15:00.334Z,24.26
2023-02-25T13:16:36.853Z,27.89
2023-02-25T13:18:02.045Z,24.24
2023-02-25T13:19:43.064Z,25.39
2023-02-25T13:21:05.817Z,25.43
2023-02-25T13:22:28.184Z,22.63
2023-02-25T13:23:59.923Z,21.76
2023-02-25T13:26:37.482Z,24.17
2023-02-25T13:28:13.305Z,23.57
2023-02-25T13:29:38.929Z,22.17
2023-02-25T13:30:47.663Z,25.85
2023-02-25T13:32:17.863Z,23.41
2023-02-25T13:34:48.426Z,23.02
2023-02-25T13:36:13.623Z,22.62
2023-02-25T13:37:36.149Z,24.54
2023-02-25T13:38:53.636Z,22.22
2023-02-25T13:40:18.838Z,24.08
2023-02-25T13:41:36.868Z,24.34
2023-02-25T13:42:45.831Z,26.47
2023-02-25T13:44:03.596Z,24.93
2023-02-25T13:45:30.653Z,28.51
2023-02-25T13:46:49.367Z,23.53
2023-02-25T13:48:26.753Z,25.27
2023-02-25T13:49:49.865Z,26.72
2023-02-25T13:51:12.581Z,26.12
2023-02-25T13:52:36.785Z,23.78
2023-02-25T13:53:45.602Z,25.44
2023-02-25T13:55:09.714Z,24.46
2023-02-25T13:56:41.970Z,23.92
2023-02-25T13:57:51.241Z,23.96
2023-02-25T13:59:19.794Z,24.16
2023-02-25T14:00:43.638Z,26.38
2023-02-25T14:02:22.879Z,24.52
2023-02-25T14:03:48.883Z,27.45
2023-02-25T14:05:09.961Z,24.22
2023-02-25T14:06:31.214Z,22.84
2023-02-25T14:08:01.499Z,23.24
2023-02-25T14:09:25.659Z,25.71
2023-02-25T14:10:31.550Z,25.71
2023-02-25T14:12:00.491Z,30.52
2023-02-25T14:13:10.332Z,27.11
2023-02-25T14:14:34.332Z,25.19
2023-02-25T14:16:10.775Z,24.23
2023-02-25T14:17:28.345Z,25.76
2023-02-25T14:18:42.485Z,26.69
2023-02-25T14:20:02.837Z,26.46
2023-02-25T14:21:34.541Z,25.36
2023-02-25T14:22:43.244Z,24.76
2023-02-25T14:23:51.838Z,25.18
2023-02-25T14:25:09.934Z,25.18
2023-02-25T14:26:28.250Z,27.00
2023-02-25T14:27:42.825Z,26.51
2023-02-25T14:28:54.742Z,24.68
2023-02-25T14:30:00.561Z,29.23
2023-02-25T14:31:15.665Z,24.88
2023-02-25T14:32:44.703Z,29.14
2023-02-25T14:34:14.543Z,25.24
2023-02-25T14:35:36.848Z,24.68
2023-02-25T14:36:51.370Z,24.84
2023-02-25T14:38:00.736Z,26.12
2023-02-25T14:39:23.378Z,25.49
2023-02-25T14:40:35.364Z,24.89
2023-02-25T14:43:18.156Z,25.96
2023-02-25T14:44:42.057Z,24.22
2023-02-25T14:46:03.293Z,25.39
2023-02-25T14:47:09.047Z,24.03
2023-02-25T14:48:20.470Z,27.14
2023-02-25T14:50:32.973Z,24.98
2023-02-25T14:51:53.878Z,25.82
2023-02-25T14:53:02.598Z,26.74
2023-02-25T14:54:31.171Z,27.23
2023-02-25T14:55:59.537Z,28.48
2023-02-25T14:57:11.282Z,27.92
2023-02-25T14:58:38.209Z,27.13
2023-02-25T14:59:56.257Z,27.18
2023-02-25T15:01:34.575Z,30.29